Time;durP1;ratioP1;P1;durP2;ratioP2;P2;SDS_P1;SDS_P2;PMS_P1;PMS_P2;Temp;Humidity;BMP_temperature;BMP_pressure;BME280_temperature;BME280_humidity;BME280_pressure;Samples;Min_cycle;Max_cycle;Signal;HPM_P1;HPM_P2
2023/02/12 00:01:28;;;;;;;;;;;;;;;9.67;42.19;102198.16;4979921;28;20295;-41
2023/02/12 00:03:53;;;;;;;;;;;;;;;9.88;42.06;102214.13;4979239;28;19921;-41
2023/02/12 00:06:18;;;;;;;;;;;;;;;9.85;43.53;102214.03;4979448;28;19918;-41
2023/02/12 00:08:43;;;;;;;;;;;;;;;9.91;43.07;102219.31;4978208;28;20012;-41
2023/02/12 00:11:13;;;;;;;;;;;;;;;9.80;45.32;102211.34;4979680;28;19921;-41
2023/02/12 00:13:38;;;;;;;;;;;;;;;9.96;44.12;102209.97;4979277;28;20057;-41
2023/02/12 00:16:04;;;;;;;;;;;;;;;10.53;44.48;102230.97;4979456;28;19925;-41
2023/02/12 00:18:30;;;;;;;;;;;;;;;10.21;47.67;102192.50;4979193;28;20457;-41
2023/02/12 00:20:57;;;;;;;;;;;;;;;10.38;48.46;102193.75;5014327;28;19921;-40
2023/02/12 00:23:22;;;;;;;;;;;;;;;10.38;51.44;102180.88;4983041;28;19917;-41
2023/02/12 00:25:47;;;;;;;;;;;;;;;10.76;51.98;102185.88;4978347;28;20508;-41
2023/02/12 00:28:13;;;;;;;;;;;;;;;10.85;57.47;102161.97;4978556;28;19921;-41
2023/02/12 00:30:38;;;;;;;;;;;;;;;10.75;60.73;102124.84;4980052;28;19975;-41
2023/02/12 00:33:03;;;;;;;;;;;;;;;10.65;62.90;102099.75;4980612;28;20020;-41
2023/02/12 00:35:28;;;;;;;;;;;;;;;10.72;63.70;102082.69;4982435;28;20384;-41
2023/02/12 00:37:54;;;;;;;;;;;;;;;10.73;67.54;102059.50;4979396;28;20143;-41
2023/02/12 00:40:19;;;;;;;;;;;;;;;10.96;67.47;102056.44;4980039;28;19961;-41
2023/02/12 00:42:44;;;;;;;;;;;;;;;11.13;71.41;102031.78;4987079;28;19976;-41
2023/02/12 00:45:09;;;;;;;;;;;;;;;11.19;75.89;102003.47;4978404;28;19956;-41
2023/02/12 00:47:35;;;;;;;;;;;;;;;11.33;78.92;101989.88;4975667;28;19925;-41
2023/02/12 00:50:00;;;;;;;;;;;;;;;11.97;83.47;101985.50;4979724;28;19920;-41
2023/02/12 00:52:25;;;;;;;;;;;;;;;11.58;90.93;101929.97;4983036;28;19928;-41
2023/02/12 00:54:50;;;;;;;;;;;;;;;10.79;96.99;101874.00;4980371;28;19972;-41
2023/02/12 00:57:16;;;;;;;;;;;;;;;11.15;93.28;101893.34;4983733;28;19918;-41
2023/02/12 00:59:41;;;;;;;;;;;;;;;10.60;94.31;101867.72;5008069;28;19917;-41
2023/02/12 01:02:07;;;;;;;;;;;;;;;10.48;89.98;101888.16;4988020;28;19935;-40
2023/02/12 01:04:32;;;;;;;;;;;;;;;10.79;87.69;101907.53;4982655;28;19941;-40
2023/02/12 01:06:57;;;;;;;;;;;;;;;10.94;88.92;101913.72;4983412;28;19969;-40
2023/02/12 01:09:22;;;;;;;;;;;;;;;11.13;86.74;101925.13;4983211;28;20375;-40
2023/02/12 01:11:47;;;;;;;;;;;;;;;10.92;93.40;101900.81;4981824;28;19918;-40
2023/02/12 01:14:13;;;;;;;;;;;;;;;11.51;95.05;101902.38;4983605;28;19922;-40
2023/02/12 01:16:39;;;;;;;;;;;;;;;12.27;98.30;101884.16;4984646;28;20928;-40
2023/02/12 01:19:04;;;;;;;;;;;;;;;12.16;100.00;101825.50;4983326;28;19924;-40
2023/02/12 01:21:30;;;;;;;;;;;;;;;12.34;100.00;101792.91;4986132;28;19918;-40
2023/02/12 01:23:56;;;;;;;;;;;;;;;12.69;100.00;101766.34;4982924;28;19957;-40
2023/02/12 01:26:21;;;;;;;;;;;;;;;13.03;100.00;101714.72;4981178;28;20016;-40
2023/02/12 01:28:50;;;;;;;;;;;;;;;13.65;100.00;101674.19;4984383;28;19925;-40
2023/02/12 01:31:17;;;;;;;;;;;;;;;13.05;100.00;101603.47;4983459;28;20613;-40
2023/02/12 01:33:42;;;;;;;;;;;;;;;13.27;100.00;101584.44;4982528;28;19925;-40
2023/02/12 01:36:08;;;;;;;;;;;;;;;13.88;100.00;101562.72;4982073;28;19925;-40
2023/02/12 01:38:34;;;;;;;;;;;;;;;13.27;100.00;101487.84;4982533;28;19921;-40
2023/02/12 01:41:03;;;;;;;;;;;;;;;13.84;100.00;101478.13;4982975;28;20395;-40
2023/02/12 01:43:28;;;;;;;;;;;;;;;13.81;100.00;101437.56;4983162;28;20036;-40
2023/02/12 01:45:54;;;;;;;;;;;;;;;14.17;100.00;101404.50;4981862;28;20073;-40
2023/02/12 01:48:19;;;;;;;;;;;;;;;14.21;100.00;101354.38;4982573;28;20283;-40
2023/02/12 01:50:45;;;;;;;;;;;;;;;13.89;100.00;101331.34;5000211;28;19925;-40
2023/02/12 01:53:11;;;;;;;;;;;;;;;14.33;100.00;101324.88;5020694;28;19944;-40
2023/02/12 01:55:37;;;;;;;;;;;;;;;14.33;100.00;101293.78;4981631;28;20341;-40
2023/02/12 01:58:02;;;;;;;;;;;;;;;14.30;100.00;101269.59;4982036;28;19922;-40
2023/02/12 02:00:28;;;;;;;;;;;;;;;14.35;100.00;101249.69;4989067;28;19921;-40
2023/02/12 02:02:54;;;;;;;;;;;;;;;14.20;100.00;101238.59;4981898;28;20364;-40
2023/02/12 02:05:29;;;;;;;;;;;;;;;13.55;100.00;101235.81;5014902;28;19929;-40
2023/02/12 02:07:54;;;;;;;;;;;;;;;12.90;100.00;101247.44;4981370;28;19923;-40
2023/02/12 02:10:19;;;;;;;;;;;;;;;13.49;100.00;101273.81;4982471;28;20055;-40
2023/02/12 02:15:29;;;;;;;;;;;;;;;13.89;100.00;101261.41;4980996;28;19929;-40
2023/02/12 02:17:57;;;;;;;;;;;;;;;13.34;100.00;101265.31;4980846;28;19922;-40
2023/02/12 02:20:46;;;;;;;;;;;;;;;13.33;100.00;101268.75;4982346;28;20016;-40
2023/02/12 02:23:30;;;;;;;;;;;;;;;13.23;100.00;101276.53;5026918;28;20007;-40
2023/02/12 02:26:02;;;;;;;;;;;;;;;13.48;100.00;101265.19;5000131;28;20318;-40
2023/02/12 02:28:46;;;;;;;;;;;;;;;13.18;100.00;101254.16;4999782;28;19960;-40
2023/02/12 02:31:19;;;;;;;;;;;;;;;12.49;100.00;101270.00;4981410;28;20590;-40
2023/02/12 02:33:55;;;;;;;;;;;;;;;12.95;100.00;101284.47;5017240;28;20004;-40
2023/02/12 02:36:29;;;;;;;;;;;;;;;13.01;100.00;101304.28;5019641;28;19922;-40
2023/02/12 02:38:57;;;;;;;;;;;;;;;12.45;100.00;101291.59;4981795;28;19928;-40
2023/02/12 02:41:35;;;;;;;;;;;;;;;12.93;100.00;101315.53;4982051;28;19960;-40
2023/02/12 02:44:00;;;;;;;;;;;;;;;13.08;100.00;101293.03;4981886;28;19922;-40
2023/02/12 02:46:34;;;;;;;;;;;;;;;13.07;100.00;101284.41;5019431;28;19918;-40
2023/02/12 02:49:00;;;;;;;;;;;;;;;13.13;100.00;101273.16;5003386;28;19918;-40
2023/02/12 02:51:27;;;;;;;;;;;;;;;13.31;100.00;101275.66;5013274;28;19914;-40
2023/02/12 02:53:59;;;;;;;;;;;;;;;12.69;100.00;101269.09;4981109;28;20529;-40
2023/02/12 02:56:24;;;;;;;;;;;;;;;12.58;100.00;101283.78;4980582;28;19921;-40
2023/02/12 02:58:57;;;;;;;;;;;;;;;12.52;100.00;101293.28;5024219;28;19943;-40
2023/02/12 03:01:39;;;;;;;;;;;;;;;12.50;100.00;101297.59;5016772;28;19976;-40
2023/02/12 03:04:09;;;;;;;;;;;;;;;12.47;100.00;101300.16;5002813;28;19921;-40
2023/02/12 03:06:34;;;;;;;;;;;;;;;13.08;100.00;101318.91;5024578;28;19922;-40
2023/02/12 03:09:01;;;;;;;;;;;;;;;13.33;100.00;101304.13;4980942;28;19928;-40
2023/02/12 03:11:27;;;;;;;;;;;;;;;13.52;100.00;101278.97;5024016;28;20026;-40
2023/02/12 03:14:03;;;;;;;;;;;;;;;13.22;100.00;101260.16;5002565;28;19941;-40
2023/02/12 03:16:30;;;;;;;;;;;;;;;12.55;100.00;101254.47;5013872;28;19929;-40
2023/02/12 03:19:00;;;;;;;;;;;;;;;12.77;100.00;101278.53;5016147;28;20012;-40
2023/02/12 03:21:27;;;;;;;;;;;;;;;13.05;100.00;101268.03;4980810;28;19963;-40
2023/02/12 03:23:59;;;;;;;;;;;;;;;13.10;100.00;101249.91;4979831;28;19933;-40
2023/02/12 03:26:28;;;;;;;;;;;;;;;12.82;100.00;101244.91;4979905;28;19922;-40
2023/02/12 03:28:53;;;;;;;;;;;;;;;12.25;100.00;101242.53;5017177;28;19980;-40
2023/02/12 03:31:37;;;;;;;;;;;;;;;13.12;100.00;101268.88;5019625;28;19929;-40
2023/02/12 03:34:05;;;;;;;;;;;;;;;13.09;100.00;101254.22;4980465;28;19929;-40
2023/02/12 03:36:33;;;;;;;;;;;;;;;13.35;100.00;101246.31;4985571;28;19932;-40
2023/02/12 03:39:04;;;;;;;;;;;;;;;13.08;100.00;101243.88;4978823;28;19922;-40
2023/02/12 03:41:43;;;;;;;;;;;;;;;13.55;100.00;101246.16;4979510;28;20015;-40
2023/02/12 03:44:22;;;;;;;;;;;;;;;13.23;100.00;101230.84;4978079;28;20187;-40
2023/02/12 03:47:00;;;;;;;;;;;;;;;13.22;100.00;101217.91;5015420;28;19973;-40
2023/02/12 03:49:30;;;;;;;;;;;;;;;13.82;100.00;101215.69;5028396;28;19917;-40
2023/02/12 03:51:55;;;;;;;;;;;;;;;14.11;100.00;101192.06;4995603;28;19957;-40
2023/02/12 03:54:20;;;;;;;;;;;;;;;13.83;100.00;101169.94;5016021;28;20013;-40
2023/02/12 03:57:03;;;;;;;;;;;;;;;13.85;100.00;101171.66;4979228;28;19968;-40
2023/02/12 03:59:28;;;;;;;;;;;;;;;13.25;100.00;101176.47;5011672;28;19972;-40
2023/02/12 04:01:53;;;;;;;;;;;;;;;13.56;100.00;101193.50;4980001;28;20323;-40
2023/02/12 04:04:19;;;;;;;;;;;;;;;13.73;100.00;101195.06;5010933;28;20334;-40
2023/02/12 04:06:44;;;;;;;;;;;;;;;13.39;100.00;101205.75;5017533;28;19922;-40
2023/02/12 04:09:10;;;;;;;;;;;;;;;13.63;100.00;101215.00;5012769;28;20468;-40
2023/02/12 04:12:01;;;;;;;;;;;;;;;12.92;100.00;101215.50;4979637;28;19921;-40
2023/02/12 04:14:35;;;;;;;;;;;;;;;13.54;100.00;101218.53;4989870;28;19922;-40
2023/02/12 04:17:20;;;;;;;;;;;;;;;13.07;100.00;101205.94;5012447;28;19996;-40
2023/02/12 04:20:04;;;;;;;;;;;;;;;13.52;100.00;101233.22;4979321;28;19928;-40
2023/02/12 04:22:29;;;;;;;;;;;;;;;13.31;100.00;101249.78;4979591;28;20009;-40
2023/02/12 04:24:59;;;;;;;;;;;;;;;12.82;100.00;101249.19;4978431;28;20142;-40
2023/02/12 04:27:34;;;;;;;;;;;;;;;12.80;100.00;101256.97;5011332;28;19921;-40
2023/02/12 04:30:06;;;;;;;;;;;;;;;13.32;100.00;101277.41;5018100;28;19948;-40
2023/02/12 04:32:34;;;;;;;;;;;;;;;12.52;100.00;101254.50;4979473;28;20880;-40
2023/02/12 04:35:02;;;;;;;;;;;;;;;13.11;100.00;101282.66;4977403;28;19922;-40
2023/02/12 04:37:29;;;;;;;;;;;;;;;12.75;100.00;101266.47;4979258;28;20318;-40
2023/02/12 04:39:54;;;;;;;;;;;;;;;13.31;100.00;101270.47;4977743;28;19936;-40
2023/02/12 04:42:19;;;;;;;;;;;;;;;12.68;100.00;101262.19;5016259;28;20448;-40
2023/02/12 04:44:45;;;;;;;;;;;;;;;12.92;100.00;101271.56;5010870;28;20319;-40
2023/02/12 04:47:11;;;;;;;;;;;;;;;13.37;100.00;101280.81;4979204;28;20401;-40
2023/02/12 04:49:36;;;;;;;;;;;;;;;12.73;100.00;101261.31;4979717;28;19949;-40
2023/02/12 04:52:01;;;;;;;;;;;;;;;13.23;100.00;101277.41;4979158;28;19921;-40
2023/02/12 04:54:26;;;;;;;;;;;;;;;12.79;100.00;101275.91;4977486;28;19920;-40
2023/02/12 04:56:52;;;;;;;;;;;;;;;13.28;100.00;101280.00;4979243;28;19927;-40
2023/02/12 04:59:17;;;;;;;;;;;;;;;13.25;100.00;101270.50;4979704;28;19921;-40
2023/02/12 05:01:43;;;;;;;;;;;;;;;13.76;100.00;101258.06;4997250;28;19925;-40
2023/02/12 05:04:09;;;;;;;;;;;;;;;13.44;100.00;101254.88;4978617;28;19936;-40
2023/02/12 05:06:35;;;;;;;;;;;;;;;13.55;100.00;101255.66;4993624;28;20960;-40
2023/02/12 05:09:00;;;;;;;;;;;;;;;13.24;100.00;101248.06;4980157;28;19921;-40
2023/02/12 05:11:25;;;;;;;;;;;;;;;13.30;100.00;101237.72;5010893;28;19921;-40
2023/02/12 05:13:51;;;;;;;;;;;;;;;13.53;100.00;101223.75;4978822;28;19941;-40
2023/02/12 05:16:16;;;;;;;;;;;;;;;13.00;100.00;101225.84;4978796;28;19965;-40
2023/02/12 05:18:42;;;;;;;;;;;;;;;13.50;100.00;101239.28;4978999;28;19925;-40
2023/02/12 05:21:07;;;;;;;;;;;;;;;14.03;100.00;101225.00;4980061;28;20470;-40
2023/02/12 05:23:33;;;;;;;;;;;;;;;13.79;100.00;101205.38;4978534;28;20359;-40
2023/02/12 05:25:59;;;;;;;;;;;;;;;13.73;100.00;101211.47;5012634;28;20429;-40
2023/02/12 05:28:24;;;;;;;;;;;;;;;13.33;100.00;101201.47;5027846;28;19917;-40
2023/02/12 05:30:50;;;;;;;;;;;;;;;13.47;100.00;101219.47;4979676;28;20612;-40
2023/02/12 05:33:15;;;;;;;;;;;;;;;13.25;100.00;101217.88;4979083;28;19918;-40
2023/02/12 05:35:40;;;;;;;;;;;;;;;12.91;100.00;101238.81;4978107;28;19987;-40
2023/02/12 05:38:05;;;;;;;;;;;;;;;13.06;100.00;101255.97;4979007;28;19976;-40
2023/02/12 05:40:31;;;;;;;;;;;;;;;13.23;100.00;101248.97;4978823;28;19914;-40
2023/02/12 05:42:56;;;;;;;;;;;;;;;13.23;100.00;101258.44;4981887;28;20561;-40
2023/02/12 05:45:26;;;;;;;;;;;;;;;12.92;100.00;101271.56;4981935;28;19928;-40
2023/02/12 05:47:51;;;;;;;;;;;;;;;12.98;100.00;101267.22;4981931;28;19932;-40
2023/02/12 05:50:17;;;;;;;;;;;;;;;12.97;100.00;101260.31;4982300;28;19917;-40
2023/02/12 05:52:42;;;;;;;;;;;;;;;12.90;100.00;101258.63;4982350;28;19918;-40
2023/02/12 05:55:07;;;;;;;;;;;;;;;13.31;100.00;101257.53;5018900;28;19933;-40
2023/02/12 05:57:33;;;;;;;;;;;;;;;13.33;100.00;101242.88;4983113;28;20028;-40
2023/02/12 05:59:58;;;;;;;;;;;;;;;13.29;100.00;101230.81;4981998;28;20018;-40
2023/02/12 06:02:23;;;;;;;;;;;;;;;13.76;100.00;101231.31;5004575;28;19922;-40
2023/02/12 06:04:48;;;;;;;;;;;;;;;13.52;100.00;101212.50;4982988;28;19928;-40
2023/02/12 06:07:14;;;;;;;;;;;;;;;13.24;100.00;101221.34;4982159;28;19918;-40
2023/02/12 06:09:39;;;;;;;;;;;;;;;13.20;100.00;101215.31;4981410;28;19917;-40
2023/02/12 06:12:04;;;;;;;;;;;;;;;13.57;100.00;101218.53;5009736;28;19924;-40
2023/02/12 06:14:29;;;;;;;;;;;;;;;13.95;100.00;101206.06;4984657;28;19917;-40
2023/02/12 06:16:55;;;;;;;;;;;;;;;13.94;100.00;101194.00;4981697;28;20545;-40
2023/02/12 06:19:20;;;;;;;;;;;;;;;14.01;100.00;101185.28;4981231;28;19918;-40
2023/02/12 06:21:46;;;;;;;;;;;;;;;14.04;100.00;101185.25;4981997;28;21046;-40
2023/02/12 06:24:11;;;;;;;;;;;;;;;14.27;100.00;101178.94;4981586;28;20583;-40
2023/02/12 06:26:36;;;;;;;;;;;;;;;14.01;100.00;101180.09;4979855;28;19925;-40
2023/02/12 06:29:02;;;;;;;;;;;;;;;13.88;100.00;101183.69;4980015;28;20004;-40
2023/02/12 06:31:28;;;;;;;;;;;;;;;13.91;100.00;101188.84;4981764;28;19933;-40
2023/02/12 06:33:54;;;;;;;;;;;;;;;13.37;100.00;101190.22;4981617;28;19932;-40
2023/02/12 06:36:19;;;;;;;;;;;;;;;12.80;100.00;101207.84;5018745;28;20382;-40
2023/02/12 06:38:45;;;;;;;;;;;;;;;13.06;100.00;101248.19;4984020;28;19956;-40
2023/02/12 06:41:10;;;;;;;;;;;;;;;12.79;100.00;101260.41;4984486;28;20341;-40
2023/02/12 06:43:35;;;;;;;;;;;;;;;13.42;100.00;101256.63;4980898;28;19940;-40
2023/02/12 06:46:01;;;;;;;;;;;;;;;13.74;100.00;101253.75;4981014;28;20016;-40
2023/02/12 06:48:26;;;;;;;;;;;;;;;13.06;100.00;101253.38;4981773;28;19944;-40
2023/02/12 06:50:51;;;;;;;;;;;;;;;13.25;100.00;101254.09;4981468;28;19914;-40
2023/02/12 06:53:17;;;;;;;;;;;;;;;13.44;100.00;101262.66;4980911;28;20421;-40
2023/02/12 06:55:42;;;;;;;;;;;;;;;13.72;100.00;101239.97;4978501;28;20030;-40
2023/02/12 06:58:07;;;;;;;;;;;;;;;13.73;100.00;101237.38;4980627;28;19933;-40
2023/02/12 07:00:32;;;;;;;;;;;;;;;13.55;100.00;101230.63;4981080;28;19929;-40
2023/02/12 07:02:57;;;;;;;;;;;;;;;13.70;100.00;101216.66;4981281;28;19925;-40
2023/02/12 07:05:23;;;;;;;;;;;;;;;13.28;100.00;101228.25;4980380;28;20390;-40
2023/02/12 07:07:48;;;;;;;;;;;;;;;13.18;100.00;101258.44;4980833;28;20034;-40
2023/02/12 07:10:14;;;;;;;;;;;;;;;12.32;100.00;101271.81;4978380;28;19921;-40
2023/02/12 07:12:39;;;;;;;;;;;;;;;12.37;100.00;101298.47;4980786;28;19921;-40
2023/02/12 07:15:04;;;;;;;;;;;;;;;13.13;100.00;101311.97;4979774;28;19922;-40
2023/02/12 07:17:29;;;;;;;;;;;;;;;13.17;100.00;101305.91;4981053;28;19926;-40
2023/02/12 07:19:55;;;;;;;;;;;;;;;13.41;100.00;101298.88;4981224;28;19922;-40
2023/02/12 07:22:21;;;;;;;;;;;;;;;13.66;100.00;101282.31;4980821;28;19914;-40
2023/02/12 07:24:46;;;;;;;;;;;;;;;13.57;100.00;101265.13;4979398;28;20367;-40
2023/02/12 07:27:11;;;;;;;;;;;;;;;12.92;100.00;101293.09;4979649;28;19925;-40
2023/02/12 07:29:36;;;;;;;;;;;;;;;12.63;100.00;101305.28;4979250;28;20111;-40
2023/02/12 07:32:02;;;;;;;;;;;;;;;12.82;100.00;101309.53;4980022;28;19921;-40
2023/02/12 07:34:27;;;;;;;;;;;;;;;12.89;100.00;101319.00;4979994;28;19928;-40
2023/02/12 07:36:52;;;;;;;;;;;;;;;12.86;100.00;101323.28;4979771;28;19926;-40
2023/02/12 07:39:17;;;;;;;;;;;;;;;13.10;100.00;101327.50;4980173;28;19957;-40
2023/02/12 07:41:43;;;;;;;;;;;;;;;13.79;100.00;101322.75;4980309;28;19933;-40
2023/02/12 07:44:09;;;;;;;;;;;;;;;14.11;100.00;101292.28;4980937;28;19926;-40
2023/02/12 07:46:39;;;;;;;;;;;;;;;13.75;100.00;101279.66;4979727;28;19981;-40
2023/02/12 07:49:05;;;;;;;;;;;;;;;13.99;100.00;101272.53;5023400;28;20751;-40
2023/02/12 07:51:31;;;;;;;;;;;;;;;13.27;100.00;101268.75;4980291;28;19918;-40
2023/02/12 07:53:57;;;;;;;;;;;;;;;13.02;100.00;101318.91;4980462;28;19921;-40
2023/02/12 07:56:23;;;;;;;;;;;;;;;13.71;100.00;101316.81;4979439;28;19918;-40
2023/02/12 07:58:49;;;;;;;;;;;;;;;13.64;100.00;101301.31;4982203;28;19922;-40
2023/02/12 08:01:15;;;;;;;;;;;;;;;13.26;100.00;101320.53;4980034;28;20497;-40
2023/02/12 08:03:40;;;;;;;;;;;;;;;13.08;100.00;101313.72;4979538;28;19922;-40
2023/02/12 08:06:25;;;;;;;;;;;;;;;14.48;100.00;101295.31;4978953;28;19975;-40
2023/02/12 08:08:50;;;;;;;;;;;;;;;14.05;100.00;101280.25;4978933;28;19928;-40
2023/02/12 08:11:16;;;;;;;;;;;;;;;14.42;100.00;101274.66;4999302;28;19925;-40
2023/02/12 08:13:42;;;;;;;;;;;;;;;12.77;100.00;101272.47;4998039;28;19917;-40
2023/02/12 08:16:08;;;;;;;;;;;;;;;11.62;100.00;101327.75;4979005;28;19968;-40
2023/02/12 08:18:33;;;;;;;;;;;;;;;11.43;100.00;101367.31;4979904;28;20844;-40
2023/02/12 08:21:03;;;;;;;;;;;;;;;11.72;100.00;101404.38;4979672;28;19929;-40
2023/02/12 08:23:28;;;;;;;;;;;;;;;11.75;100.00;101425.88;4979767;28;19963;-40
2023/02/12 08:25:53;;;;;;;;;;;;;;;13.33;100.00;101449.91;4979579;28;19952;-40
2023/02/12 08:28:18;;;;;;;;;;;;;;;13.85;100.00;101411.66;4978874;28;19922;-40
2023/02/12 08:30:44;;;;;;;;;;;;;;;12.30;100.00;101382.03;4980198;28;19929;-40
2023/02/12 08:33:09;;;;;;;;;;;;;;;12.77;100.00;101391.41;4979613;28;19917;-40
2023/02/12 08:35:34;;;;;;;;;;;;;;;12.23;100.00;101401.00;4979203;28;19918;-40
2023/02/12 08:37:59;;;;;;;;;;;;;;;13.11;100.00;101396.47;4979330;28;20555;-40
2023/02/12 08:40:25;;;;;;;;;;;;;;;12.64;100.00;101388.03;4980082;28;20420;-40
2023/02/12 08:42:51;;;;;;;;;;;;;;;12.12;100.00;101398.41;4979024;28;20692;-41
2023/02/12 08:45:16;;;;;;;;;;;;;;;12.98;100.00;101411.22;4979336;28;19932;-41
2023/02/12 08:47:41;;;;;;;;;;;;;;;12.66;100.00;101408.72;4980073;28;19921;-41
2023/02/12 08:50:07;;;;;;;;;;;;;;;12.23;100.00;101394.09;4979371;28;19918;-41
2023/02/12 08:52:33;;;;;;;;;;;;;;;12.88;100.00;101383.63;5000776;28;19975;-41
2023/02/12 08:54:58;;;;;;;;;;;;;;;12.84;100.00;101381.91;4979757;28;19925;-41
2023/02/12 08:57:24;;;;;;;;;;;;;;;12.03;100.00;101393.25;4980419;28;21101;-42
2023/02/12 08:59:49;;;;;;;;;;;;;;;12.69;100.00;101419.03;4990854;28;19929;-41
2023/02/12 09:02:14;;;;;;;;;;;;;;;12.24;100.00;101410.47;4986369;28;19968;-41
2023/02/12 09:04:39;;;;;;;;;;;;;;;12.95;100.00;101422.44;4978467;28;19918;-41
2023/02/12 09:07:05;;;;;;;;;;;;;;;11.98;100.00;101413.03;4980217;28;19922;-41
2023/02/12 09:09:30;;;;;;;;;;;;;;;11.65;100.00;101440.47;4979370;28;19921;-41
2023/02/12 09:11:55;;;;;;;;;;;;;;;11.58;100.00;101460.22;4982423;28;19917;-42
2023/02/12 09:14:22;;;;;;;;;;;;;;;10.75;100.00;101484.75;4980924;28;19940;-41
2023/02/12 09:16:48;;;;;;;;;;;;;;;11.39;100.00;101515.22;4984745;28;20431;-41
2023/02/12 09:19:13;;;;;;;;;;;;;;;11.22;100.00;101508.25;4983298;28;19925;-42
2023/02/12 09:21:38;;;;;;;;;;;;;;;11.38;100.00;101516.94;4983739;28;20322;-41
2023/02/12 09:24:03;;;;;;;;;;;;;;;11.24;100.00;101531.47;5015520;28;19925;-42
2023/02/12 09:26:29;;;;;;;;;;;;;;;11.34;100.00;101541.00;4980744;28;20363;-41
2023/02/12 09:28:54;;;;;;;;;;;;;;;10.87;100.00;101544.97;4983025;28;19921;-41
2023/02/12 09:31:21;;;;;;;;;;;;;;;11.27;100.00;101565.88;4982781;28;19918;-42
2023/02/12 09:33:47;;;;;;;;;;;;;;;10.95;100.00;101572.50;4982999;28;19932;-42
2023/02/12 09:36:13;;;;;;;;;;;;;;;10.73;100.00;101580.09;4982301;28;19926;-41
2023/02/12 09:38:38;;;;;;;;;;;;;;;10.66;100.00;101593.78;4982728;28;20623;-41
2023/02/12 09:41:09;;;;;;;;;;;;;;;11.20;100.00;101610.56;4982596;28;19972;-41
2023/02/12 09:43:36;;;;;;;;;;;;;;;11.05;100.00;101607.84;4982162;28;19976;-41
2023/02/12 09:46:13;;;;;;;;;;;;;;;10.76;100.00;101610.19;5018890;28;19918;-42
2023/02/12 09:48:44;;;;;;;;;;;;;;;11.17;100.00;101638.88;4983208;28;19949;-42
2023/02/12 09:51:10;;;;;;;;;;;;;;;11.27;100.00;101656.19;4983098;28;19924;-41
2023/02/12 09:53:36;;;;;;;;;;;;;;;10.93;100.00;101654.19;5020019;28;19914;-42
2023/02/12 09:56:01;;;;;;;;;;;;;;;11.37;100.00;101669.16;5022457;28;19924;-42
2023/02/12 09:58:34;;;;;;;;;;;;;;;11.00;100.00;101667.13;4982775;28;20004;-41
2023/02/12 10:00:59;;;;;;;;;;;;;;;10.87;100.00;101676.44;5020445;28;21109;-41
2023/02/12 10:03:24;;;;;;;;;;;;;;;11.19;100.00;101693.94;5014179;28;19932;-41
2023/02/12 10:05:51;;;;;;;;;;;;;;;11.09;100.00;101694.72;5018889;28;20024;-41
2023/02/12 10:08:19;;;;;;;;;;;;;;;11.22;100.00;101693.97;5025807;28;20425;-42
2023/02/12 10:10:53;;;;;;;;;;;;;;;11.45;100.00;101689.00;4982341;28;20413;-41
2023/02/12 10:13:47;;;;;;;;;;;;;;;11.14;100.00;101681.84;4982711;28;20419;-41
2023/02/12 10:16:27;;;;;;;;;;;;;;;11.07;100.00;101689.53;4984734;28;19998;-41
2023/02/12 10:18:53;;;;;;;;;;;;;;;10.83;100.00;101695.34;4982385;28;19918;-41
2023/02/12 10:21:18;;;;;;;;;;;;;;;11.14;100.00;101700.78;4981973;28;19967;-41
2023/02/12 10:23:46;;;;;;;;;;;;;;;10.87;100.00;101691.91;4982376;28;19992;-42
2023/02/12 10:26:17;;;;;;;;;;;;;;;11.08;100.00;101690.38;4978003;28;19954;-41
2023/02/12 10:28:42;;;;;;;;;;;;;;;11.22;100.00;101704.28;4981459;28;19917;-41
2023/02/12 10:31:12;;;;;;;;;;;;;;;11.13;100.00;101698.16;4981910;28;19941;-41
2023/02/12 10:33:47;;;;;;;;;;;;;;;11.28;100.00;101704.31;5015295;28;19928;-42
2023/02/12 10:36:15;;;;;;;;;;;;;;;11.69;100.00;101690.88;4981429;28;20016;-41
2023/02/12 10:38:41;;;;;;;;;;;;;;;10.95;100.00;101657.59;4981616;28;19917;-41
2023/02/12 10:41:09;;;;;;;;;;;;;;;11.43;100.00;101676.94;5028452;28;20008;-41
2023/02/12 10:43:34;;;;;;;;;;;;;;;11.63;100.00;101669.31;5012444;28;19922;-41
2023/02/12 10:45:59;;;;;;;;;;;;;;;11.83;100.00;101641.03;4981038;28;20477;-42
2023/02/12 10:48:44;;;;;;;;;;;;;;;11.03;100.00;101613.00;4981556;28;20710;-41
2023/02/12 10:51:20;;;;;;;;;;;;;;;11.51;100.00;101626.22;4981584;28;19929;-41
2023/02/12 10:53:45;;;;;;;;;;;;;;;12.28;100.00;101611.13;5023862;28;19943;-41
2023/02/12 10:56:11;;;;;;;;;;;;;;;11.81;100.00;101580.78;4980484;28;20450;-41
2023/02/12 10:58:40;;;;;;;;;;;;;;;11.46;100.00;101556.53;4981126;28;20299;-41
2023/02/12 11:01:11;;;;;;;;;;;;;;;11.86;100.00;101563.59;5026241;28;19956;-41
2023/02/12 11:03:38;;;;;;;;;;;;;;;11.72;100.00;101576.44;5012945;28;19972;-41
2023/02/12 11:06:11;;;;;;;;;;;;;;;11.54;100.00;101556.59;5015042;28;19968;-41
2023/02/12 11:08:37;;;;;;;;;;;;;;;11.50;100.00;101549.69;4981278;28;19925;-41
2023/02/12 11:11:30;;;;;;;;;;;;;;;11.26;100.00;101546.09;4984573;28;19919;-41
2023/02/12 11:14:02;;;;;;;;;;;;;;;12.01;100.00;101548.19;4983578;28;19921;-41
2023/02/12 11:16:29;;;;;;;;;;;;;;;11.81;100.00;101531.72;4980903;28;19944;-41
2023/02/12 11:18:58;;;;;;;;;;;;;;;11.62;100.00;101534.25;5019912;28;19933;-41
2023/02/12 11:21:23;;;;;;;;;;;;;;;11.98;100.00;101537.84;4981169;28;19920;-41
2023/02/12 11:23:48;;;;;;;;;;;;;;;11.70;100.00;101532.56;4981189;28;19915;-41
2023/02/12 11:26:17;;;;;;;;;;;;;;;12.33;100.00;101534.47;4977288;28;19983;-41
2023/02/12 11:28:53;;;;;;;;;;;;;;;12.15;100.00;101514.63;4981124;28;19928;-41
2023/02/12 11:31:21;;;;;;;;;;;;;;;12.13;100.00;101493.09;4996144;28;19914;-41
2023/02/12 11:33:47;;;;;;;;;;;;;;;13.06;100.00;101488.78;4979768;28;19972;-41
2023/02/12 11:36:12;;;;;;;;;;;;;;;12.70;100.00;101452.66;5014366;28;20561;-41
2023/02/12 11:38:38;;;;;;;;;;;;;;;12.69;100.00;101444.88;4980108;28;19925;-41
2023/02/12 11:41:18;;;;;;;;;;;;;;;12.25;100.00;101438.03;4980398;28;19918;-41
2023/02/12 11:43:44;;;;;;;;;;;;;;;12.08;100.00;101456.09;4983023;28;20601;-41
2023/02/12 11:46:09;;;;;;;;;;;;;;;11.76;100.00;101463.75;5019191;28;19918;-41
2023/02/12 11:48:36;;;;;;;;;;;;;;;12.09;100.00;101489.66;5001003;28;19925;-42
2023/02/12 11:51:02;;;;;;;;;;;;;;;12.25;100.00;101464.72;4980488;28;19917;-42
2023/02/12 11:53:30;;;;;;;;;;;;;;;11.76;100.00;101468.91;4984449;28;19922;-42
2023/02/12 11:55:59;;;;;;;;;;;;;;;11.79;100.00;101480.13;4980447;28;19917;-42
2023/02/12 11:58:26;;;;;;;;;;;;;;;12.14;100.00;101456.94;5006763;28;19917;-41
2023/02/12 12:00:54;;;;;;;;;;;;;;;12.12;100.00;101448.34;5002644;28;20326;-41
2023/02/12 12:03:42;;;;;;;;;;;;;;;11.98;100.00;101444.03;4980269;28;19928;-42
2023/02/12 12:06:28;;;;;;;;;;;;;;;11.98;100.00;101442.31;4987828;28;19932;-42
2023/02/12 12:09:09;;;;;;;;;;;;;;;12.38;100.00;101457.81;5018567;28;19921;-42
2023/02/12 12:11:37;;;;;;;;;;;;;;;12.03;100.00;101463.81;5010751;28;19917;-42
2023/02/12 12:14:08;;;;;;;;;;;;;;;11.80;100.00;101456.00;4980214;28;20020;-42
2023/02/12 12:22:23;;;;;;;;;;;;;;;12.02;100.00;101369.16;5013240;28;19920;-42
2023/02/12 12:24:56;;;;;;;;;;;;;;;12.96;100.00;101361.22;4976683;28;20374;-42
2023/02/12 12:28:02;;;;;;;;;;;;;;;12.45;100.00;101361.34;5012849;28;20406;-42
2023/02/12 12:30:40;;;;;;;;;;;;;;;13.99;100.00;101342.47;5014649;28;19971;-42
2023/02/12 12:33:14;;;;;;;;;;;;;;;13.43;100.00;101302.31;5021500;28;19917;-42
2023/02/12 12:35:58;;;;;;;;;;;;;;;13.24;100.00;101299.81;5004256;28;19929;-41
2023/02/12 12:38:30;;;;;;;;;;;;;;;13.10;100.00;101286.13;4979521;28;20012;-42
2023/02/12 12:41:02;;;;;;;;;;;;;;;14.14;100.00;101272.38;5017406;28;19918;-42